Time;durP1;ratioP1;P1;durP2;ratioP2;P2;SDS_P1;SDS_P2;PMS_P1;PMS_P2;Temp;Humidity;BMP_temperature;BMP_pressure;BME280_temperature;BME280_humidity;BME280_pressure;Samples;Min_cycle;Max_cycle;Signal;HPM_P1;HPM_P2
2022/08/15 00:00:06;;;;;;;;;;;;;;;;;;2115818;28;20376;-44
2022/08/15 00:01:07;;;;;;;;;;;;;;;;;;2115723;28;20368;-43
2022/08/15 00:02:08;;;;;;;;;;;;;;;;;;2115786;28;19924;-43
2022/08/15 00:03:30;;;;;;;;;;;;;;;;;;2115773;28;20284;-43
2022/08/15 00:04:50;;;;;;;;;;;;;;;;;;2115685;28;19946;-43
2022/08/15 00:05:52;;;;;;;;;;;;;;;;;;2115834;28;19923;-45
2022/08/15 00:06:52;;;;;;;;;;;;;;;;;;2115726;28;20329;-44
2022/08/15 00:07:54;;;;;;;;;;;;;;;;;;2115867;28;19957;-43
2022/08/15 00:08:55;;;;;;;;;;;;;;;;;;2115713;28;20010;-43
2022/08/15 00:09:56;;;;;;;;;;;;;;;;;;2115911;28;19971;-46
2022/08/15 00:10:56;;;;;;;;;;;;;;;;;;2115616;28;19928;-44
2022/08/15 00:12:03;;;;;;;;;;;;;;;;;;2107294;28;19946;-43
2022/08/15 00:13:05;;;;;;;;;;;;;;;;;;2107407;28;20266;-43
2022/08/15 00:14:14;;;;;;;;;;;;;;;;;;2107450;28;20019;-44
2022/08/15 00:15:31;;;;;;;;;;;;;;;;;;2107272;28;19932;-43
2022/08/15 00:16:36;;;;;;;;;;;;;;;;;;2107429;28;19970;-43
2022/08/15 00:17:37;;;;;;;;;;;;;;;;;;2107340;28;20331;-44
2022/08/15 00:18:49;;;;;;;;;;;;;;;;;;2107429;28;19924;-44
2022/08/15 00:19:50;;;;;;;;;;;;;;;;;;2107376;28;19984;-43
2022/08/15 00:20:51;;;;;;;;;;;;;;;;;;2107412;28;20006;-45
2022/08/15 00:21:52;;;;;;;;;;;;;;;;;;2107166;28;19947;-43
2022/08/15 00:22:53;;;;;;;;;;;;;;;;;;2107385;28;20006;-43
2022/08/15 00:23:56;;;;;;;;;;;;;;;;;;2107375;28;20023;-45
2022/08/15 00:24:58;;;;;;;;;;;;;;;;;;2107146;28;20322;-47
2022/08/15 00:25:59;;;;;;;;;;;;;;;;;;2107259;28;20011;-44
2022/08/15 00:27:00;;;;;;;;;;;;;;;;;;2107181;28;19946;-44
2022/08/15 00:28:01;;;;;;;;;;;;;;;;;;2107359;28;19924;-44
2022/08/15 00:29:03;;;;;;;;;;;;;;;;;;2107171;28;20434;-44
2022/08/15 00:30:04;;;;;;;;;;;;;;;;;;2107163;28;19946;-45
2022/08/15 00:31:06;;;;;;;;;;;;;;;;;;2107103;28;20343;-44
2022/08/15 00:32:07;;;;;;;;;;;;;;;;;;2107087;28;19924;-44
2022/08/15 00:33:28;;;;;;;;;;;;;;;;;;2107096;28;19924;-45
2022/08/15 00:34:30;;;;;;;;;;;;;;;;;;2107349;28;20118;-43
2022/08/15 00:35:40;;;;;;;;;;;;;;;;;;2107196;28;19924;-44
2022/08/15 00:36:41;;;;;;;;;;;;;;;;;;2107235;28;20289;-43
2022/08/15 00:37:55;;;;;;;;;;;;;;;;;;2107252;28;19924;-44
2022/08/15 00:39:15;;;;;;;;;;;;;;;;;;2107412;28;19924;-43
2022/08/15 00:40:16;;;;;;;;;;;;;;;;;;2107195;28;20019;-43
2022/08/15 00:42:38;;;;;;;;;;;;;;;;;;2107223;28;20012;-43
2022/08/15 00:43:40;;;;;;;;;;;;;;;;;;2107285;28;20023;-43
2022/08/15 00:44:41;;;;;;;;;;;;;;;;;;2107297;28;20030;-43
2022/08/15 00:45:53;;;;;;;;;;;;;;;;;;2107253;28;19955;-43
2022/08/15 00:46:56;;;;;;;;;;;;;;;;;;2107057;28;19963;-43
2022/08/15 00:49:13;;;;;;;;;;;;;;;;;;2093975;28;19977;-43
2022/08/15 00:50:13;;;;;;;;;;;;;;;;;;2107105;28;19924;-43
2022/08/15 00:51:33;;;;;;;;;;;;;;;;;;2107126;28;20007;-43
2022/08/15 00:52:33;;;;;;;;;;;;;;;;;;2107075;28;20477;-43
2022/08/15 00:53:55;;;;;;;;;;;;;;;;;;2111145;28;20311;-44
2022/08/15 00:54:55;;;;;;;;;;;;;;;;;;2115714;28;19930;-44
2022/08/15 00:55:59;;;;;;;;;;;;;;;;;;2115570;28;19924;-43
2022/08/15 00:56:59;;;;;;;;;;;;;;;;;;2115726;28;20061;-44
2022/08/15 00:58:01;;;;;;;;;;;;;;;;;;2115516;28;19966;-44
2022/08/15 00:59:03;;;;;;;;;;;;;;;;;;2115498;28;20385;-44
2022/08/15 01:00:06;;;;;;;;;;;;;;;;;;2115703;28;19966;-44
2022/08/15 01:01:08;;;;;;;;;;;;;;;;;;2115379;28;20049;-45
2022/08/15 01:02:09;;;;;;;;;;;;;;;;;;2115394;28;19923;-45
2022/08/15 01:03:24;;;;;;;;;;;;;;;;;;2115310;28;19923;-44
2022/08/15 01:04:25;;;;;;;;;;;;;;;;;;2115280;28;20022;-44
2022/08/15 01:05:34;;;;;;;;;;;;;;;;;;2114682;28;19931;-45
2022/08/15 01:06:37;;;;;;;;;;;;;;;;;;2115432;28;19963;-44
2022/08/15 01:07:37;;;;;;;;;;;;;;;;;;2115660;28;20241;-45
2022/08/15 01:08:38;;;;;;;;;;;;;;;;;;2115546;28;20152;-44
2022/08/15 01:09:40;;;;;;;;;;;;;;;;;;2115443;28;19923;-44
2022/08/15 01:10:44;;;;;;;;;;;;;;;;;;2115456;28;20010;-44
2022/08/15 01:11:55;;;;;;;;;;;;;;;;;;2107213;28;19940;-44
2022/08/15 01:12:55;;;;;;;;;;;;;;;;;;2107147;28;19934;-45
2022/08/15 01:13:59;;;;;;;;;;;;;;;;;;2106990;28;19928;-44
2022/08/15 01:15:05;;;;;;;;;;;;;;;;;;2107169;28;19928;-46
2022/08/15 01:16:07;;;;;;;;;;;;;;;;;;2107052;28;20336;-44
2022/08/15 01:17:07;;;;;;;;;;;;;;;;;;2106920;28;20426;-44
2022/08/15 01:18:12;;;;;;;;;;;;;;;;;;2106986;28;20293;-43
2022/08/15 01:19:33;;;;;;;;;;;;;;;;;;2106815;28;20323;-44
2022/08/15 01:20:34;;;;;;;;;;;;;;;;;;2106866;28;19932;-46
2022/08/15 01:21:38;;;;;;;;;;;;;;;;;;2107102;28;19967;-42
2022/08/15 01:22:43;;;;;;;;;;;;;;;;;;2106953;28;19924;-43
2022/08/15 01:23:44;;;;;;;;;;;;;;;;;;2106973;28;19985;-43
2022/08/15 01:24:55;;;;;;;;;;;;;;;;;;2106847;28;19924;-45
2022/08/15 01:26:15;;;;;;;;;;;;;;;;;;2107186;28;19931;-45
2022/08/15 01:27:37;;;;;;;;;;;;;;;;;;2106817;28;19931;-44
2022/08/15 01:28:40;;;;;;;;;;;;;;;;;;2106939;28;19931;-45
2022/08/15 01:29:41;;;;;;;;;;;;;;;;;;2106780;28;20395;-44
2022/08/15 01:30:42;;;;;;;;;;;;;;;;;;2106636;28;20452;-44
2022/08/15 01:32:03;;;;;;;;;;;;;;;;;;2106665;28;19955;-44
2022/08/15 01:33:05;;;;;;;;;;;;;;;;;;2106766;28;20019;-45
2022/08/15 01:34:06;;;;;;;;;;;;;;;;;;2106770;28;20023;-44
2022/08/15 01:35:13;;;;;;;;;;;;;;;;;;2106835;28;19947;-45
2022/08/15 01:36:14;;;;;;;;;;;;;;;;;;2106591;28;19931;-45
2022/08/15 01:37:33;;;;;;;;;;;;;;;;;;2106690;28;19924;-44
2022/08/15 01:38:55;;;;;;;;;;;;;;;;;;2106740;28;20388;-44
2022/08/15 01:40:06;;;;;;;;;;;;;;;;;;2106837;28;19932;-44
2022/08/15 01:41:08;;;;;;;;;;;;;;;;;;2106697;28;19931;-44
2022/08/15 01:42:09;;;;;;;;;;;;;;;;;;2106720;28;19963;-45
2022/08/15 01:43:10;;;;;;;;;;;;;;;;;;2106636;28;19924;-45
2022/08/15 01:44:11;;;;;;;;;;;;;;;;;;2106831;28;20057;-46
2022/08/15 01:45:34;;;;;;;;;;;;;;;;;;2106857;28;19931;-44
2022/08/15 01:46:35;;;;;;;;;;;;;;;;;;2106696;28;20026;-44
2022/08/15 01:47:36;;;;;;;;;;;;;;;;;;2106811;28;19932;-45
2022/08/15 01:48:37;;;;;;;;;;;;;;;;;;2106678;28;20404;-44
2022/08/15 01:49:39;;;;;;;;;;;;;;;;;;2106505;28;20265;-44
2022/08/15 01:50:42;;;;;;;;;;;;;;;;;;2114986;28;19930;-44
2022/08/15 01:51:43;;;;;;;;;;;;;;;;;;2115148;28;20064;-45
2022/08/15 01:52:44;;;;;;;;;;;;;;;;;;2115050;28;20019;-45
2022/08/15 01:54:01;;;;;;;;;;;;;;;;;;2115114;28;20325;-45
2022/08/15 01:55:01;;;;;;;;;;;;;;;;;;2115020;28;20026;-44
2022/08/15 01:56:06;;;;;;;;;;;;;;;;;;2115102;28;20006;-44
2022/08/15 01:57:27;;;;;;;;;;;;;;;;;;2115044;28;19927;-44
2022/08/15 01:58:28;;;;;;;;;;;;;;;;;;2115217;28;20023;-45
2022/08/15 01:59:32;;;;;;;;;;;;;;;;;;2114989;28;19931;-45
2022/08/15 02:00:33;;;;;;;;;;;;;;;;;;2115180;28;19945;-45
2022/08/15 02:01:33;;;;;;;;;;;;;;;;;;2114955;28;20011;-44
2022/08/15 02:02:35;;;;;;;;;;;;;;;;;;2115238;28;19923;-44
2022/08/15 02:03:43;;;;;;;;;;;;;;;;;;2115013;28;19931;-44
2022/08/15 02:04:51;;;;;;;;;;;;;;;;;;2115083;28;19924;-44
2022/08/15 02:05:54;;;;;;;;;;;;;;;;;;2115064;28;20014;-44
2022/08/15 02:06:57;;;;;;;;;;;;;;;;;;2114836;28;19923;-44
2022/08/15 02:07:58;;;;;;;;;;;;;;;;;;2115126;28;20014;-45
2022/08/15 02:09:19;;;;;;;;;;;;;;;;;;2115103;28;19930;-44
2022/08/15 02:10:43;;;;;;;;;;;;;;;;;;2114894;28;19954;-44
2022/08/15 02:11:44;;;;;;;;;;;;;;;;;;2108299;28;19946;-45
2022/08/15 02:13:01;;;;;;;;;;;;;;;;;;2106538;28;19990;-45
2022/08/15 02:14:13;;;;;;;;;;;;;;;;;;2106874;28;20080;-44
2022/08/15 02:15:34;;;;;;;;;;;;;;;;;;2106505;28;20400;-43
2022/08/15 02:16:36;;;;;;;;;;;;;;;;;;2106182;28;19924;-44
2022/08/15 02:17:37;;;;;;;;;;;;;;;;;;2106564;28;20003;-43
2022/08/15 02:18:37;;;;;;;;;;;;;;;;;;2106626;28;19977;-43
2022/08/15 02:19:38;;;;;;;;;;;;;;;;;;2106490;28;19928;-43
2022/08/15 02:20:46;;;;;;;;;;;;;;;;;;2106533;28;19928;-44
2022/08/15 02:21:47;;;;;;;;;;;;;;;;;;2106426;28;19934;-45
2022/08/15 02:22:48;;;;;;;;;;;;;;;;;;2106405;28;20014;-43
2022/08/15 02:23:49;;;;;;;;;;;;;;;;;;2106499;28;20396;-44
2022/08/15 02:24:49;;;;;;;;;;;;;;;;;;2106457;28;19967;-44
2022/08/15 02:25:50;;;;;;;;;;;;;;;;;;2106295;28;19932;-43
2022/08/15 02:26:51;;;;;;;;;;;;;;;;;;2106355;28;19924;-43
2022/08/15 02:27:53;;;;;;;;;;;;;;;;;;2106624;28;19957;-44
2022/08/15 02:28:54;;;;;;;;;;;;;;;;;;2106349;28;19967;-43
2022/08/15 02:29:55;;;;;;;;;;;;;;;;;;2106631;28;19928;-44
2022/08/15 02:30:55;;;;;;;;;;;;;;;;;;2106346;28;19980;-44
2022/08/15 02:31:56;;;;;;;;;;;;;;;;;;2106424;28;19928;-44
2022/08/15 02:32:57;;;;;;;;;;;;;;;;;;2106536;28;20472;-43
2022/08/15 02:33:58;;;;;;;;;;;;;;;;;;2106424;28;20094;-45
2022/08/15 02:34:59;;;;;;;;;;;;;;;;;;2106588;28;20007;-43
2022/08/15 02:36:00;;;;;;;;;;;;;;;;;;2106546;28;20377;-43
2022/08/15 02:37:01;;;;;;;;;;;;;;;;;;2106349;28;19924;-44
2022/08/15 02:38:09;;;;;;;;;;;;;;;;;;2106378;28;20309;-44
2022/08/15 02:39:12;;;;;;;;;;;;;;;;;;2106698;28;19924;-44
2022/08/15 02:40:13;;;;;;;;;;;;;;;;;;2106298;28;20045;-43
2022/08/15 02:41:33;;;;;;;;;;;;;;;;;;2106291;28;19924;-43
2022/08/15 02:42:38;;;;;;;;;;;;;;;;;;2106443;28;19931;-43
2022/08/15 02:43:39;;;;;;;;;;;;;;;;;;2106443;28;20022;-45
2022/08/15 02:44:41;;;;;;;;;;;;;;;;;;2106581;28;20011;-44
2022/08/15 02:45:47;;;;;;;;;;;;;;;;;;2106439;28;20014;-43
2022/08/15 02:47:00;;;;;;;;;;;;;;;;;;2106272;28;19931;-43
2022/08/15 02:48:04;;;;;;;;;;;;;;;;;;2112413;28;19924;-45
2022/08/15 02:49:26;;;;;;;;;;;;;;;;;;2114800;28;19985;-45
2022/08/15 02:50:27;;;;;;;;;;;;;;;;;;2115181;28;20018;-45
2022/08/15 02:51:28;;;;;;;;;;;;;;;;;;2114615;28;19977;-44
2022/08/15 02:52:29;;;;;;;;;;;;;;;;;;2114807;28;19931;-45
2022/08/15 02:53:30;;;;;;;;;;;;;;;;;;2114696;28;20381;-44
2022/08/15 02:54:30;;;;;;;;;;;;;;;;;;2114904;28;19924;-44
2022/08/15 02:55:38;;;;;;;;;;;;;;;;;;2114634;28;19924;-46
2022/08/15 02:56:39;;;;;;;;;;;;;;;;;;2114731;28;20015;-43
2022/08/15 02:57:40;;;;;;;;;;;;;;;;;;2114744;28;19969;-44
2022/08/15 02:58:58;;;;;;;;;;;;;;;;;;2114647;28;20466;-44
2022/08/15 03:00:01;;;;;;;;;;;;;;;;;;2114838;28;19923;-43
2022/08/15 03:01:18;;;;;;;;;;;;;;;;;;2114813;28;19924;-44
2022/08/15 03:02:25;;;;;;;;;;;;;;;;;;2114532;28;19979;-44
2022/08/15 03:03:31;;;;;;;;;;;;;;;;;;2114787;28;19930;-44
2022/08/15 03:04:34;;;;;;;;;;;;;;;;;;2114702;28;19931;-44
2022/08/15 03:05:35;;;;;;;;;;;;;;;;;;2115000;28;19924;-45
2022/08/15 03:06:36;;;;;;;;;;;;;;;;;;2114645;28;20007;-44
2022/08/15 03:07:37;;;;;;;;;;;;;;;;;;2114721;28;19959;-44
2022/08/15 03:08:38;;;;;;;;;;;;;;;;;;2114645;28;20273;-44
2022/08/15 03:09:39;;;;;;;;;;;;;;;;;;2114774;28;20006;-44
2022/08/15 03:10:45;;;;;;;;;;;;;;;;;;2114549;28;19931;-43
2022/08/15 03:11:45;;;;;;;;;;;;;;;;;;2107847;28;19924;-44
2022/08/15 03:12:57;;;;;;;;;;;;;;;;;;2106356;28;20015;-43
2022/08/15 03:13:58;;;;;;;;;;;;;;;;;;2105957;28;19924;-43
2022/08/15 03:14:59;;;;;;;;;;;;;;;;;;2106155;28;20385;-44
2022/08/15 03:16:01;;;;;;;;;;;;;;;;;;2106171;28;20017;-43
2022/08/15 03:17:08;;;;;;;;;;;;;;;;;;2106181;28;20297;-44
2022/08/15 03:18:09;;;;;;;;;;;;;;;;;;2106296;28;19924;-43
2022/08/15 03:19:10;;;;;;;;;;;;;;;;;;2106177;28;20472;-44
2022/08/15 03:20:11;;;;;;;;;;;;;;;;;;2106404;28;20002;-44
2022/08/15 03:21:14;;;;;;;;;;;;;;;;;;2106227;28;19924;-43
2022/08/15 03:22:14;;;;;;;;;;;;;;;;;;2106252;28;19924;-43
2022/08/15 03:23:35;;;;;;;;;;;;;;;;;;2106249;28;19924;-45
2022/08/15 03:24:42;;;;;;;;;;;;;;;;;;2106310;28;19944;-44
2022/08/15 03:25:43;;;;;;;;;;;;;;;;;;2106032;28;19924;-45
2022/08/15 03:26:53;;;;;;;;;;;;;;;;;;2106276;28;19947;-44
2022/08/15 03:27:55;;;;;;;;;;;;;;;;;;2106225;28;19971;-44
2022/08/15 03:28:56;;;;;;;;;;;;;;;;;;2107298;28;19928;-45
2022/08/15 03:30:02;;;;;;;;;;;;;;;;;;2107803;28;20190;-45
2022/08/15 03:31:03;;;;;;;;;;;;;;;;;;2107531;28;19932;-46
2022/08/15 03:32:04;;;;;;;;;;;;;;;;;;2107589;28;20006;-45
2022/08/15 03:33:05;;;;;;;;;;;;;;;;;;2107598;28;20019;-45
2022/08/15 03:34:05;;;;;;;;;;;;;;;;;;2107533;28;20011;-44
2022/08/15 03:35:06;;;;;;;;;;;;;;;;;;2107577;28;20027;-45
2022/08/15 03:36:09;;;;;;;;;;;;;;;;;;2107529;28;19924;-46
2022/08/15 03:37:11;;;;;;;;;;;;;;;;;;2107837;28;20292;-46
2022/08/15 03:38:12;;;;;;;;;;;;;;;;;;2107641;28;20025;-44
2022/08/15 03:39:13;;;;;;;;;;;;;;;;;;2107688;28;20065;-44
2022/08/15 03:40:14;;;;;;;;;;;;;;;;;;2107744;28;19977;-44
2022/08/15 03:41:17;;;;;;;;;;;;;;;;;;2107432;28;19932;-44
2022/08/15 03:42:18;;;;;;;;;;;;;;;;;;2108928;28;20384;-45
2022/08/15 03:43:20;;;;;;;;;;;;;;;;;;2116057;28;20006;-45
2022/08/15 03:44:21;;;;;;;;;;;;;;;;;;2115837;28;20019;-45
2022/08/15 03:45:27;;;;;;;;;;;;;;;;;;2115938;28;19972;-45
2022/08/15 03:46:28;;;;;;;;;;;;;;;;;;2116023;28;20338;-46
2022/08/15 03:47:28;;;;;;;;;;;;;;;;;;2115908;28;20007;-46
2022/08/15 03:48:29;;;;;;;;;;;;;;;;;;2116051;28;19924;-44
2022/08/15 03:49:30;;;;;;;;;;;;;;;;;;2116121;28;20003;-44
2022/08/15 03:50:52;;;;;;;;;;;;;;;;;;2115936;28;19924;-44
2022/08/15 03:51:58;;;;;;;;;;;;;;;;;;2115909;28;19930;-44
2022/08/15 03:52:58;;;;;;;;;;;;;;;;;;2115847;28;20283;-45
2022/08/15 03:53:59;;;;;;;;;;;;;;;;;;2115782;28;19931;-44
2022/08/15 03:55:00;;;;;;;;;;;;;;;;;;2115907;28;20072;-44
2022/08/15 03:56:01;;;;;;;;;;;;;;;;;;2116353;28;19969;-45
2022/08/15 03:57:02;;;;;;;;;;;;;;;;;;2115652;28;19947;-45
2022/08/15 03:58:04;;;;;;;;;;;;;;;;;;2116136;28;19930;-44
2022/08/15 03:59:05;;;;;;;;;;;;;;;;;;2115917;28;19930;-44
2022/08/15 04:00:07;;;;;;;;;;;;;;;;;;2115756;28;19930;-44
2022/08/15 04:01:08;;;;;;;;;;;;;;;;;;2115726;28;20007;-44
2022/08/15 04:02:08;;;;;;;;;;;;;;;;;;2115809;28;20285;-45
2022/08/15 04:03:12;;;;;;;;;;;;;;;;;;2115721;28;19928;-44
2022/08/15 04:04:13;;;;;;;;;;;;;;;;;;2116035;28;20346;-45
2022/08/15 04:05:19;;;;;;;;;;;;;;;;;;2115785;28;20392;-44
2022/08/15 04:06:23;;;;;;;;;;;;;;;;;;2116002;28;19969;-44
2022/08/15 04:07:28;;;;;;;;;;;;;;;;;;2115729;28;19923;-43
2022/08/15 04:08:42;;;;;;;;;;;;;;;;;;2115689;28;20391;-43
2022/08/15 04:10:03;;;;;;;;;;;;;;;;;;2116084;28;19930;-45
2022/08/15 04:11:04;;;;;;;;;;;;;;;;;;2114658;28;19928;-45
2022/08/15 04:12:05;;;;;;;;;;;;;;;;;;2107491;28;19955;-45
2022/08/15 04:13:06;;;;;;;;;;;;;;;;;;2107508;28;20297;-46
2022/08/15 04:14:09;;;;;;;;;;;;;;;;;;2107204;28;19924;-45
2022/08/15 04:15:29;;;;;;;;;;;;;;;;;;2107439;28;19931;-43
2022/08/15 04:16:31;;;;;;;;;;;;;;;;;;2107694;28;19924;-44
2022/08/15 04:17:52;;;;;;;;;;;;;;;;;;2107471;28;19946;-44
2022/08/15 04:18:58;;;;;;;;;;;;;;;;;;2107289;28;19931;-44
2022/08/15 04:19:59;;;;;;;;;;;;;;;;;;2107300;28;20404;-44
2022/08/15 04:21:00;;;;;;;;;;;;;;;;;;2107211;28;19924;-44
2022/08/15 04:22:02;;;;;;;;;;;;;;;;;;2107362;28;20026;-45
2022/08/15 04:23:07;;;;;;;;;;;;;;;;;;2107259;28;20369;-44
2022/08/15 04:24:08;;;;;;;;;;;;;;;;;;2107402;28;19924;-43
2022/08/15 04:25:30;;;;;;;;;;;;;;;;;;2107464;28;19928;-43
2022/08/15 04:26:40;;;;;;;;;;;;;;;;;;2107301;28;19977;-44
2022/08/15 04:27:41;;;;;;;;;;;;;;;;;;2107182;28;19924;-44
2022/08/15 04:28:44;;;;;;;;;;;;;;;;;;2107542;28;19924;-46
2022/08/15 04:29:55;;;;;;;;;;;;;;;;;;2107279;28;19924;-45
2022/08/15 04:30:55;;;;;;;;;;;;;;;;;;2107116;28;19928;-45
2022/08/15 04:31:56;;;;;;;;;;;;;;;;;;2107151;28;19927;-45
2022/08/15 04:32:57;;;;;;;;;;;;;;;;;;2107433;28;19925;-44
2022/08/15 04:34:03;;;;;;;;;;;;;;;;;;2107111;28;19924;-44
2022/08/15 04:35:24;;;;;;;;;;;;;;;;;;2107241;28;19928;-45
2022/08/15 04:36:25;;;;;;;;;;;;;;;;;;2107251;28;20385;-45
2022/08/15 04:37:32;;;;;;;;;;;;;;;;;;2107338;28;19924;-45
2022/08/15 04:38:33;;;;;;;;;;;;;;;;;;2108519;28;19924;-46
2022/08/15 04:39:34;;;;;;;;;;;;;;;;;;2115640;28;19974;-43
2022/08/15 04:40:35;;;;;;;;;;;;;;;;;;2115472;28;20401;-45
2022/08/15 04:41:56;;;;;;;;;;;;;;;;;;2115655;28;19931;-44
2022/08/15 04:42:58;;;;;;;;;;;;;;;;;;2115506;28;20509;-45
2022/08/15 04:43:59;;;;;;;;;;;;;;;;;;2115490;28;19924;-46
2022/08/15 04:45:00;;;;;;;;;;;;;;;;;;2115556;28;20340;-45
2022/08/15 04:46:02;;;;;;;;;;;;;;;;;;2115677;28;19924;-45
2022/08/15 04:47:03;;;;;;;;;;;;;;;;;;2115861;28;19923;-46
2022/08/15 04:48:04;;;;;;;;;;;;;;;;;;2115535;28;19955;-45
2022/08/15 04:49:04;;;;;;;;;;;;;;;;;;2115670;28;20010;-45
2022/08/15 04:50:11;;;;;;;;;;;;;;;;;;2115745;28;19991;-47
2022/08/15 04:51:12;;;;;;;;;;;;;;;;;;2115494;28;19959;-45
2022/08/15 04:52:17;;;;;;;;;;;;;;;;;;2115669;28;19934;-45
2022/08/15 04:53:18;;;;;;;;;;;;;;;;;;2115502;28;19981;-44
2022/08/15 04:54:22;;;;;;;;;;;;;;;;;;2115404;28;19947;-44
2022/08/15 04:55:22;;;;;;;;;;;;;;;;;;2115596;28;19924;-44
2022/08/15 04:56:43;;;;;;;;;;;;;;;;;;2115481;28;19931;-45
2022/08/15 04:57:51;;;;;;;;;;;;;;;;;;2115422;28;20393;-45
2022/08/15 04:58:56;;;;;;;;;;;;;;;;;;2115733;28;19927;-44
2022/08/15 05:00:07;;;;;;;;;;;;;;;;;;2115474;28;20447;-44
2022/08/15 05:01:08;;;;;;;;;;;;;;;;;;2115248;28;19924;-45
2022/08/15 05:02:09;;;;;;;;;;;;;;;;;;2115496;28;19924;-45
2022/08/15 05:03:30;;;;;;;;;;;;;;;;;;2115239;28;20376;-45
2022/08/15 05:04:31;;;;;;;;;;;;;;;;;;2115598;28;19954;-45
2022/08/15 05:05:32;;;;;;;;;;;;;;;;;;2115514;28;20056;-45
2022/08/15 05:06:38;;;;;;;;;;;;;;;;;;2115457;28;20023;-44
2022/08/15 05:07:39;;;;;;;;;;;;;;;;;;2115725;28;20006;-43
2022/08/15 05:08:59;;;;;;;;;;;;;;;;;;2115401;28;20360;-45
2022/08/15 05:10:00;;;;;;;;;;;;;;;;;;2115328;28;19984;-43
2022/08/15 05:11:04;;;;;;;;;;;;;;;;;;2114543;28;19931;-44
2022/08/15 05:12:05;;;;;;;;;;;;;;;;;;2107083;28;19924;-45
2022/08/15 05:13:09;;;;;;;;;;;;;;;;;;2106812;28;19924;-44
2022/08/15 05:14:10;;;;;;;;;;;;;;;;;;2106820;28;20018;-44
2022/08/15 05:15:31;;;;;;;;;;;;;;;;;;2107194;28;19999;-44
2022/08/15 05:16:32;;;;;;;;;;;;;;;;;;2106819;28;19924;-44
2022/08/15 05:17:35;;;;;;;;;;;;;;;;;;2106927;28;19924;-43
2022/08/15 05:18:42;;;;;;;;;;;;;;;;;;2107122;28;20000;-43
2022/08/15 05:19:46;;;;;;;;;;;;;;;;;;2106925;28;19950;-44
2022/08/15 05:20:47;;;;;;;;;;;;;;;;;;2107291;28;20027;-44
2022/08/15 05:21:50;;;;;;;;;;;;;;;;;;2106816;28;19924;-45
2022/08/15 05:22:51;;;;;;;;;;;;;;;;;;2107065;28;20315;-44
2022/08/15 05:23:55;;;;;;;;;;;;;;;;;;2106831;28;19931;-46
2022/08/15 05:24:57;;;;;;;;;;;;;;;;;;2107507;28;19928;-44
2022/08/15 05:25:59;;;;;;;;;;;;;;;;;;2106768;28;19932;-45
2022/08/15 05:27:00;;;;;;;;;;;;;;;;;;2107032;28;20365;-44
2022/08/15 05:28:04;;;;;;;;;;;;;;;;;;2107087;28;19924;-44
2022/08/15 05:29:25;;;;;;;;;;;;;;;;;;2107134;28;19939;-45
2022/08/15 05:30:26;;;;;;;;;;;;;;;;;;2107000;28;19927;-46
2022/08/15 05:31:29;;;;;;;;;;;;;;;;;;2107052;28;20065;-45
2022/08/15 05:32:33;;;;;;;;;;;;;;;;;;2107269;28;20403;-45
2022/08/15 05:33:34;;;;;;;;;;;;;;;;;;2106888;28;19924;-47
2022/08/15 05:34:55;;;;;;;;;;;;;;;;;;2108957;28;19924;-44
2022/08/15 05:35:56;;;;;;;;;;;;;;;;;;2115788;28;20026;-44
2022/08/15 05:36:57;;;;;;;;;;;;;;;;;;2115255;28;20301;-43
2022/08/15 05:37:58;;;;;;;;;;;;;;;;;;2115496;28;20445;-44
2022/08/15 05:38:59;;;;;;;;;;;;;;;;;;2115502;28;20007;-44
2022/08/15 05:40:00;;;;;;;;;;;;;;;;;;2115529;28;20348;-44
2022/08/15 05:41:01;;;;;;;;;;;;;;;;;;2115099;28;19942;-44
2022/08/15 05:42:02;;;;;;;;;;;;;;;;;;2115115;28;20377;-44
2022/08/15 05:43:03;;;;;;;;;;;;;;;;;;2115350;28;19927;-46
2022/08/15 05:44:04;;;;;;;;;;;;;;;;;;2115148;28;19962;-45
2022/08/15 05:45:25;;;;;;;;;;;;;;;;;;2115612;28;19969;-45
2022/08/15 05:46:31;;;;;;;;;;;;;;;;;;2115212;28;19959;-45
2022/08/15 05:47:33;;;;;;;;;;;;;;;;;;2115446;28;19924;-45
2022/08/15 05:48:34;;;;;;;;;;;;;;;;;;2115469;28;20018;-48
2022/08/15 05:49:39;;;;;;;;;;;;;;;;;;2115160;28;20434;-45
2022/08/15 05:50:40;;;;;;;;;;;;;;;;;;2114922;28;19958;-45
2022/08/15 05:51:41;;;;;;;;;;;;;;;;;;2114684;28;20064;-45
2022/08/15 05:52:43;;;;;;;;;;;;;;;;;;2115469;28;19931;-44
2022/08/15 05:53:45;;;;;;;;;;;;;;;;;;2115325;28;19931;-46
2022/08/15 05:54:54;;;;;;;;;;;;;;;;;;2115177;28;19924;-46
2022/08/15 05:55:55;;;;;;;;;;;;;;;;;;2115115;28;19934;-48
2022/08/15 05:56:56;;;;;;;;;;;;;;;;;;2115198;28;19962;-45
2022/08/15 05:57:57;;;;;;;;;;;;;;;;;;2115636;28;19950;-45
2022/08/15 05:58:58;;;;;;;;;;;;;;;;;;2115629;28;20620;-44
2022/08/15 05:59:59;;;;;;;;;;;;;;;;;;2115376;28;20010;-43
2022/08/15 06:01:00;;;;;;;;;;;;;;;;;;2115674;28;20075;-44
2022/08/15 06:02:01;;;;;;;;;;;;;;;;;;2115524;28;19924;-44
2022/08/15 06:03:22;;;;;;;;;;;;;;;;;;2115306;28;19924;-45
2022/08/15 06:04:23;;;;;;;;;;;;;;;;;;2115219;28;19936;-44
2022/08/15 06:05:30;;;;;;;;;;;;;;;;;;2115193;28;19927;-46
2022/08/15 06:06:35;;;;;;;;;;;;;;;;;;2115061;28;19952;-44
2022/08/15 06:07:47;;;;;;;;;;;;;;;;;;2115386;28;19924;-45
2022/08/15 06:08:52;;;;;;;;;;;;;;;;;;2115182;28;19947;-45
2022/08/15 06:10:02;;;;;;;;;;;;;;;;;;2115234;28;19962;-43
2022/08/15 06:11:03;;;;;;;;;;;;;;;;;;2114131;28;20011;-43
2022/08/15 06:12:04;;;;;;;;;;;;;;;;;;2106584;28;20022;-43
2022/08/15 06:13:22;;;;;;;;;;;;;;;;;;2106522;28;19923;-43
2022/08/15 06:14:23;;;;;;;;;;;;;;;;;;2106608;28;20296;-43
2022/08/15 06:15:35;;;;;;;;;;;;;;;;;;2106901;28;19935;-46
2022/08/15 06:16:36;;;;;;;;;;;;;;;;;;2106576;28;19967;-46
2022/08/15 06:17:46;;;;;;;;;;;;;;;;;;2106720;28;20380;-46
2022/08/15 06:18:46;;;;;;;;;;;;;;;;;;2106895;28;20015;-47
2022/08/15 06:19:47;;;;;;;;;;;;;;;;;;2106657;28;19928;-44
2022/08/15 06:20:48;;;;;;;;;;;;;;;;;;2106855;28;19924;-44
2022/08/15 06:21:53;;;;;;;;;;;;;;;;;;2106406;28;20003;-44
2022/08/15 06:22:54;;;;;;;;;;;;;;;;;;2107075;28;20007;-46
2022/08/15 06:23:55;;;;;;;;;;;;;;;;;;2106451;28;19928;-46
2022/08/15 06:24:56;;;;;;;;;;;;;;;;;;2106494;28;20011;-45
2022/08/15 06:25:58;;;;;;;;;;;;;;;;;;2106961;28;20019;-45
2022/08/15 06:26:59;;;;;;;;;;;;;;;;;;2106788;28;19924;-45
2022/08/15 06:28:00;;;;;;;;;;;;;;;;;;2106644;28;20190;-45
2022/08/15 06:29:03;;;;;;;;;;;;;;;;;;2106483;28;20006;-45
2022/08/15 06:30:06;;;;;;;;;;;;;;;;;;2107592;28;19924;-45
2022/08/15 06:31:09;;;;;;;;;;;;;;;;;;2108685;28;19924;-48
2022/08/15 06:32:11;;;;;;;;;;;;;;;;;;2115197;28;19924;-45
2022/08/15 06:33:24;;;;;;;;;;;;;;;;;;2106921;28;19931;-46
2022/08/15 06:34:25;;;;;;;;;;;;;;;;;;2106810;28;20300;-44
2022/08/15 06:35:46;;;;;;;;;;;;;;;;;;2106632;28;19924;-46
2022/08/15 06:36:47;;;;;;;;;;;;;;;;;;2106771;28;20018;-45
2022/08/15 06:37:48;;;;;;;;;;;;;;;;;;2106874;28;20007;-43
2022/08/15 06:39:01;;;;;;;;;;;;;;;;;;2106307;28;20054;-44
2022/08/15 06:40:02;;;;;;;;;;;;;;;;;;2106907;28;19924;-44
2022/08/15 06:41:03;;;;;;;;;;;;;;;;;;2106746;28;19931;-46
2022/08/15 06:42:05;;;;;;;;;;;;;;;;;;2106511;28;19924;-47
2022/08/15 06:43:07;;;;;;;;;;;;;;;;;;2106539;28;19924;-46
2022/08/15 06:44:08;;;;;;;;;;;;;;;;;;2106311;28;20011;-45
2022/08/15 06:45:10;;;;;;;;;;;;;;;;;;2106508;28;20242;-44
2022/08/15 06:46:11;;;;;;;;;;;;;;;;;;2106417;28;20037;-47
2022/08/15 06:47:32;;;;;;;;;;;;;;;;;;2106576;28;19928;-44
2022/08/15 06:48:35;;;;;;;;;;;;;;;;;;2106539;28;20255;-45
2022/08/15 06:49:56;;;;;;;;;;;;;;;;;;2106420;28;19928;-44
2022/08/15 06:50:59;;;;;;;;;;;;;;;;;;2106344;28;19944;-44
2022/08/15 06:52:00;;;;;;;;;;;;;;;;;;2108824;28;20006;-44
2022/08/15 06:53:02;;;;;;;;;;;;;;;;;;2115084;28;19924;-43
2022/08/15 06:54:03;;;;;;;;;;;;;;;;;;2114683;28;19924;-44
2022/08/15 06:55:24;;;;;;;;;;;;;;;;;;2115105;28;19931;-47
2022/08/15 06:56:24;;;;;;;;;;;;;;;;;;2114637;28;19980;-45
2022/08/15 06:57:29;;;;;;;;;;;;;;;;;;2114798;28;19976;-44
2022/08/15 06:58:30;;;;;;;;;;;;;;;;;;2114667;28;20443;-45
2022/08/15 06:59:51;;;;;;;;;;;;;;;;;;2114681;28;20437;-45
2022/08/15 07:00:56;;;;;;;;;;;;;;;;;;2114644;28;19924;-44
2022/08/15 07:01:58;;;;;;;;;;;;;;;;;;2114874;28;19927;-44
2022/08/15 07:03:19;;;;;;;;;;;;;;;;;;2114964;28;19959;-45
2022/08/15 07:04:20;;;;;;;;;;;;;;;;;;2114948;28;20002;-44
2022/08/15 07:05:22;;;;;;;;;;;;;;;;;;2114574;28;20436;-44
2022/08/15 07:06:29;;;;;;;;;;;;;;;;;;2115014;28;20331;-46
2022/08/15 07:07:30;;;;;;;;;;;;;;;;;;2115089;28;20022;-44
2022/08/15 07:08:34;;;;;;;;;;;;;;;;;;2114697;28;20390;-46
2022/08/15 07:09:35;;;;;;;;;;;;;;;;;;2114669;28;20064;-45
2022/08/15 07:10:36;;;;;;;;;;;;;;;;;;2115002;28;19928;-45
2022/08/15 07:11:37;;;;;;;;;;;;;;;;;;2114259;28;19932;-45
2022/08/15 07:12:38;;;;;;;;;;;;;;;;;;2114600;28;20387;-45
2022/08/15 07:13:39;;;;;;;;;;;;;;;;;;2114965;28;20001;-46
2022/08/15 07:14:45;;;;;;;;;;;;;;;;;;2114482;28;19923;-44
2022/08/15 07:15:46;;;;;;;;;;;;;;;;;;2114730;28;20258;-43
2022/08/15 07:16:47;;;;;;;;;;;;;;;;;;2114775;28;19932;-44
2022/08/15 07:17:48;;;;;;;;;;;;;;;;;;2114916;28;20339;-45
2022/08/15 07:18:55;;;;;;;;;;;;;;;;;;2114689;28;20212;-44
2022/08/15 07:19:56;;;;;;;;;;;;;;;;;;2114729;28;20014;-45
2022/08/15 07:21:00;;;;;;;;;;;;;;;;;;2114642;28;19924;-45
2022/08/15 07:22:01;;;;;;;;;;;;;;;;;;2114669;28;20003;-45
2022/08/15 07:23:03;;;;;;;;;;;;;;;;;;2114706;28;19924;-45
2022/08/15 07:24:04;;;;;;;;;;;;;;;;;;2114575;28;19930;-46